Time;durP1;ratioP1;P1;durP2;ratioP2;P2;SDS_P1;SDS_P2;PMS_P1;PMS_P2;Temp;Humidity;BMP_temperature;BMP_pressure;BME280_temperature;BME280_humidity;BME280_pressure;Samples;Min_cycle;Max_cycle;Signal;HPM_P1;HPM_P2
2022/06/23 00:01:06;;;;;;;6.35;4.00;;;14.70;99.90;;;;;;4972553;28;20053;-84
2022/06/23 00:03:34;;;;;;;8.02;4.40;;;15.20;99.90;;;;;;4962241;28;20042;-84
2022/06/23 00:06:04;;;;;;;7.20;4.13;;;14.60;99.90;;;;;;4959520;28;20089;-84
2022/06/23 00:08:40;;;;;;;7.18;4.35;;;15.40;99.90;;;;;;4954205;28;20043;-84
2022/06/23 00:11:20;;;;;;;7.43;5.38;;;14.60;99.90;;;;;;4962425;28;20061;-84
2022/06/23 00:13:45;;;;;;;6.95;4.53;;;14.40;99.90;;;;;;4963494;28;20803;-84
2022/06/23 00:16:22;;;;;;;8.02;4.63;;;14.50;99.90;;;;;;4980756;28;20050;-84
2022/06/23 00:18:47;;;;;;;7.82;4.60;;;14.50;99.90;;;;;;4981969;28;20046;-84
2022/06/23 00:21:21;;;;;;;8.45;4.75;;;14.50;99.90;;;;;;4963454;28;20089;-84
2022/06/23 00:23:51;;;;;;;7.80;4.43;;;15.20;99.90;;;;;;4974406;28;20269;-84
2022/06/23 00:26:21;;;;;;;8.38;5.35;;;15.00;99.90;;;;;;4963733;28;20049;-84
2022/06/23 00:29:04;;;;;;;7.07;4.32;;;14.40;99.90;;;;;;4980425;28;20053;-84
2022/06/23 00:31:41;;;;;;;8.60;5.00;;;14.40;99.90;;;;;;4981771;28;20756;-84
2022/06/23 00:34:37;;;;;;;8.77;5.53;;;14.40;99.90;;;;;;4960575;28;20133;-84
2022/06/23 00:37:12;;;;;;;7.68;5.43;;;14.30;99.90;;;;;;4933280;28;20069;-84
2022/06/23 00:39:47;;;;;;;9.25;5.20;;;15.10;99.90;;;;;;4966582;28;20052;-84
2022/06/23 00:42:24;;;;;;;8.77;5.25;;;14.20;99.90;;;;;;4974938;28;20051;-85
2022/06/23 00:44:58;;;;;;;8.43;5.45;;;14.70;99.90;;;;;;4963085;28;20061;-85
2022/06/23 00:47:56;;;;;;;7.68;5.07;;;14.20;99.90;;;;;;4988507;28;20054;-85
2022/06/23 00:50:47;;;;;;;7.88;5.60;;;14.20;99.90;;;;;;4953816;28;20755;-84
2022/06/23 00:53:18;;;;;;;9.05;5.68;;;14.10;99.90;;;;;;4965600;28;20592;-84
2022/06/23 00:55:50;;;;;;;10.25;6.07;;;14.20;99.90;;;;;;4967639;28;20053;-85
2022/06/23 00:58:35;;;;;;;8.23;5.68;;;14.10;99.90;;;;;;4956416;28;20062;-84
2022/06/23 01:01:17;;;;;;;10.13;6.28;;;14.50;99.90;;;;;;4983935;28;20072;-85
2022/06/23 01:04:01;;;;;;;10.02;5.85;;;14.10;99.90;;;;;;4967167;28;20140;-84
2022/06/23 01:06:35;;;;;;;8.45;5.95;;;14.00;99.90;;;;;;4960628;28;20039;-84
2022/06/23 01:09:28;;;;;;;10.23;6.25;;;14.60;99.90;;;;;;4953238;28;20057;-83
2022/06/23 01:12:00;;;;;;;10.00;6.63;;;14.00;99.90;;;;;;4972053;28;20530;-84
2022/06/23 01:14:41;;;;;;;10.88;6.93;;;14.00;99.90;;;;;;4963339;28;20088;-83
2022/06/23 01:17:30;;;;;;;11.45;6.70;;;14.00;99.90;;;;;;4953908;28;20109;-84
2022/06/23 01:20:16;;;;;;;10.77;6.75;;;13.80;99.90;;;;;;4953004;28;20046;-85
2022/06/23 01:22:48;;;;;;;12.15;6.57;;;13.90;99.90;;;;;;4976788;28;20071;-84
2022/06/23 01:25:38;;;;;;;9.30;6.25;;;13.90;99.90;;;;;;4965387;28;20042;-83
2022/06/23 01:28:10;;;;;;;10.70;6.55;;;13.80;99.90;;;;;;4953408;28;20052;-82
2022/06/23 01:30:48;;;;;;;10.90;6.47;;;13.80;99.90;;;;;;4964769;28;20162;-84
2022/06/23 01:33:22;;;;;;;10.93;6.95;;;14.30;99.90;;;;;;4967466;28;20051;-84
2022/06/23 01:35:55;;;;;;;;;;;13.80;99.90;;;;;;4976676;28;20062;-84
2022/06/23 01:38:30;;;;;;;11.20;6.25;;;13.80;99.90;;;;;;4966646;28;19957;-84
2022/06/23 01:41:10;;;;;;;10.88;6.97;;;13.70;99.90;;;;;;4971335;28;20169;-85
2022/06/23 01:43:52;;;;;;;11.27;7.05;;;13.70;99.90;;;;;;4967832;28;20043;-84
2022/06/23 01:46:35;;;;;;;11.40;6.90;;;13.70;99.90;;;;;;4979995;28;20766;-84
2022/06/23 01:49:16;;;;;;;11.48;7.20;;;13.70;99.90;;;;;;4976121;28;20643;-84
2022/06/23 01:51:48;;;;;;;13.73;7.50;;;13.70;99.90;;;;;;4971480;28;20124;-84
2022/06/23 01:54:26;;;;;;;11.15;7.13;;;14.20;99.90;;;;;;4967302;28;20181;-85
2022/06/23 01:57:03;;;;;;;11.27;7.03;;;13.60;99.90;;;;;;4955275;28;20054;-83
2022/06/23 01:59:47;;;;;;;10.88;6.93;;;13.60;99.90;;;;;;4985450;28;20042;-85
2022/06/23 02:02:48;;;;;;;9.98;6.32;;;13.50;99.90;;;;;;4984985;28;20589;-84
2022/06/23 02:05:34;;;;;;;10.43;6.60;;;13.60;99.90;;;;;;4941673;28;20054;-84
2022/06/23 02:08:27;;;;;;;10.60;7.10;;;13.60;99.90;;;;;;4959214;28;20061;-84
2022/06/23 02:10:59;;;;;;;12.43;7.18;;;13.60;99.90;;;;;;4916946;28;20529;-84
2022/06/23 02:14:14;;;;;;;11.45;7.70;;;13.60;99.90;;;;;;4982471;28;20042;-84
2022/06/23 02:16:52;;;;;;;10.82;7.47;;;13.50;99.90;;;;;;4961541;28;20818;-84
2022/06/23 02:19:50;;;;;;;11.13;7.15;;;13.60;99.90;;;;;;4984147;28;20074;-83
2022/06/23 02:22:34;;;;;;;11.68;7.18;;;13.50;99.90;;;;;;4978868;28;20053;-85
2022/06/23 02:25:21;;;;;;;14.20;8.07;;;13.50;99.90;;;;;;4956981;28;20042;-84
2022/06/23 02:27:58;;;;;;;11.35;7.07;;;14.30;99.90;;;;;;4977182;28;20560;-84
2022/06/23 02:30:40;;;;;;;12.70;7.90;;;13.00;99.90;;;;;;4984823;28;20054;-85
2022/06/23 02:33:26;;;;;;;11.77;7.72;;;13.40;99.90;;;;;;4951482;28;20046;-85
2022/06/23 02:35:58;;;;;;;12.82;7.90;;;13.90;99.90;;;;;;4966006;28;20058;-85
2022/06/23 02:38:26;;;;;;;9.80;6.70;;;13.40;99.90;;;;;;4979626;28;20057;-85
2022/06/23 02:41:10;;;;;;;13.27;7.88;;;13.80;99.90;;;;;;4965308;28;20085;-84
2022/06/23 02:43:38;;;;;;;;;;;13.40;99.90;;;;;;4984289;28;20082;-84
2022/06/23 02:46:22;;;;;;;12.18;8.25;;;14.00;99.90;;;;;;4966096;28;20020;-83
2022/06/23 02:49:39;;;;;;;10.93;7.23;;;13.40;99.90;;;;;;4966452;28;20066;-84
2022/06/23 02:52:23;;;;;;;12.00;7.20;;;13.30;99.90;;;;;;4902004;28;20057;-85
2022/06/23 02:55:18;;;;;;;11.45;7.90;;;13.30;99.90;;;;;;4964842;28;20117;-83
2022/06/23 02:58:02;;;;;;;12.23;7.30;;;13.30;99.90;;;;;;4984954;28;20688;-83
2022/06/23 03:00:30;;;;;;;11.55;7.45;;;13.20;99.90;;;;;;4963725;28;20043;-82
2022/06/23 03:03:34;;;;;;;11.32;7.70;;;13.20;99.90;;;;;;4984656;28;20057;-85
2022/06/23 03:06:22;;;;;;;14.15;8.82;;;13.20;99.90;;;;;;4962186;28;20149;-84
2022/06/23 03:09:10;;;;;;;14.00;8.30;;;13.20;99.90;;;;;;4956093;28;20391;-85
2022/06/23 03:11:53;;;;;;;13.20;8.40;;;13.20;99.90;;;;;;4935104;28;20084;-84
2022/06/23 03:14:53;;;;;;;13.43;8.38;;;13.20;99.90;;;;;;4963959;28;20078;-85
2022/06/23 03:17:34;;;;;;;14.75;9.52;;;13.20;99.90;;;;;;4982379;28;20121;-84
2022/06/23 03:20:08;;;;;;;13.02;8.32;;;13.10;99.90;;;;;;4965641;28;20054;-83
2022/06/23 03:22:38;;;;;;;;;;;13.50;99.90;;;;;;4965013;28;20057;-84
2022/06/23 03:25:11;;;;;;;13.98;9.13;;;13.50;99.90;;;;;;4984079;28;19930;-84
2022/06/23 03:27:43;;;;;;;13.07;8.35;;;13.10;99.90;;;;;;4955850;28;20083;-84
2022/06/23 03:30:35;;;;;;;14.40;9.52;;;13.10;99.90;;;;;;4984397;28;20054;-83
2022/06/23 03:33:10;;;;;;;12.88;8.38;;;13.00;99.90;;;;;;4965281;28;20708;-84
2022/06/23 03:35:57;;;;;;;14.02;7.75;;;13.00;99.90;;;;;;4980492;28;20125;-84
2022/06/23 03:41:36;;;;;;;13.60;8.55;;;13.00;99.90;;;;;;4947947;28;20109;-85
2022/06/23 03:44:16;;;;;;;14.95;9.57;;;13.70;99.90;;;;;;4970881;28;20053;-84
2022/06/23 03:47:17;;;;;;;15.05;9.13;;;13.40;99.90;;;;;;4964943;28;20105;-84
2022/06/23 03:49:52;;;;;;;14.95;8.98;;;13.80;99.90;;;;;;4964899;28;20065;-84
2022/06/23 03:52:42;;;;;;;16.30;9.02;;;14.00;99.90;;;;;;4965458;28;20077;-85
2022/06/23 03:55:50;;;;;;;16.73;10.00;;;13.00;99.90;;;;;;4982732;28;20852;-85
2022/06/23 03:58:22;;;;;;;16.67;9.20;;;13.00;99.90;;;;;;4975879;28;20768;-84
2022/06/23 04:01:03;;;;;;;14.05;8.75;;;13.70;99.90;;;;;;4965183;28;20565;-84
2022/06/23 04:03:57;;;;;;;16.58;10.43;;;13.00;99.90;;;;;;4961371;28;20057;-84
2022/06/23 04:06:42;;;;;;;15.27;8.93;;;13.10;99.90;;;;;;4962492;28;20053;-84
2022/06/23 04:09:18;;;;;;;16.15;9.85;;;13.00;99.90;;;;;;4969835;28;20054;-84
2022/06/23 04:12:05;;;;;;;15.93;9.43;;;13.10;99.90;;;;;;4962730;28;20089;-85
2022/06/23 04:14:41;;;;;;;15.00;9.57;;;13.10;99.90;;;;;;4963258;28;20159;-84
2022/06/23 04:17:25;;;;;;;15.18;10.30;;;13.70;99.90;;;;;;4952169;28;20058;-85
2022/06/23 04:20:00;;;;;;;16.23;9.13;;;13.10;99.90;;;;;;4978249;28;20089;-85
2022/06/23 04:22:41;;;;;;;16.02;10.40;;;13.70;99.90;;;;;;4977765;28;20054;-85
2022/06/23 04:25:19;;;;;;;14.73;9.90;;;13.10;99.90;;;;;;4953435;28;20051;-85
2022/06/23 04:27:53;;;;;;;16.17;9.23;;;13.20;99.90;;;;;;4956054;28;20442;-84
2022/06/23 04:30:41;;;;;;;16.55;10.05;;;13.20;99.90;;;;;;4955253;28;20053;-84
2022/06/23 04:33:15;;;;;;;14.90;9.40;;;13.20;99.90;;;;;;4958375;28;20054;-85
2022/06/23 04:35:41;;;;;;;17.85;9.82;;;13.20;99.90;;;;;;4958883;28;20810;-84
2022/06/23 04:38:18;;;;;;;17.02;10.32;;;13.20;99.90;;;;;;4978028;28;20966;-84
2022/06/23 04:41:09;;;;;;;16.30;10.10;;;13.20;99.90;;;;;;4947113;28;20050;-85
2022/06/23 04:43:44;;;;;;;15.52;10.20;;;13.30;99.90;;;;;;4938626;28;20034;-85
2022/06/23 04:46:38;;;;;;;15.88;9.98;;;13.30;99.90;;;;;;4961608;28;20814;-84
2022/06/23 04:49:30;;;;;;;19.42;10.75;;;13.40;99.90;;;;;;4967280;28;20073;-84
2022/06/23 04:52:15;;;;;;;18.90;12.02;;;13.40;99.90;;;;;;4955069;28;20113;-84
2022/06/23 04:55:20;;;;;;;14.40;9.30;;;13.90;99.90;;;;;;4977919;28;20052;-85
2022/06/23 04:57:55;;;;;;;17.27;10.50;;;13.50;99.90;;;;;;4962492;28;20062;-85
2022/06/23 05:00:25;;;;;;;;;;;13.50;99.90;;;;;;4970215;28;20113;-83
2022/06/23 05:03:00;;;;;;;19.33;11.30;;;13.50;99.90;;;;;;4978387;28;20005;-84
2022/06/23 05:05:36;;;;;;;18.58;10.82;;;13.60;99.90;;;;;;4961843;28;20084;-83
2022/06/23 05:08:13;;;;;;;19.38;11.57;;;14.00;99.90;;;;;;4971100;28;20046;-83
2022/06/23 05:10:48;;;;;;;19.30;11.80;;;13.70;99.90;;;;;;4970845;28;20043;-86
2022/06/23 05:13:20;;;;;;;19.90;9.75;;;13.70;99.90;;;;;;4973416;28;20835;-87
2022/06/23 05:16:01;;;;;;;18.25;10.90;;;13.70;99.90;;;;;;4978459;28;20042;-81
2022/06/23 05:18:32;;;;;;;17.85;10.98;;;13.80;99.90;;;;;;4974644;28;20054;-82
2022/06/23 05:21:13;;;;;;;16.52;10.63;;;13.80;99.90;;;;;;4969105;28;20046;-82
2022/06/23 05:23:41;;;;;;;18.83;11.63;;;13.80;99.90;;;;;;4960121;28;20085;-81
2022/06/23 05:26:19;;;;;;;17.30;11.63;;;13.80;99.90;;;;;;4975620;28;20705;-81
2022/06/23 05:28:52;;;;;;;17.60;11.88;;;13.80;99.90;;;;;;4955583;28;20421;-82
2022/06/23 05:31:26;;;;;;;18.55;11.38;;;13.90;99.90;;;;;;4970773;28;20149;-81
2022/06/23 05:33:54;;;;;;;18.80;12.45;;;14.30;99.90;;;;;;4975201;28;20054;-82
2022/06/23 05:36:25;;;;;;;17.52;12.15;;;14.00;99.90;;;;;;4977205;28;20046;-81
2022/06/23 05:39:06;;;;;;;15.02;11.05;;;14.10;99.90;;;;;;4976353;28;20051;-82
2022/06/23 05:41:40;;;;;;;17.70;12.25;;;14.20;99.90;;;;;;4941753;28;20065;-81
2022/06/23 05:44:24;;;;;;;19.55;11.85;;;14.10;99.90;;;;;;4964415;28;20043;-81
2022/06/23 05:46:50;;;;;;;16.52;11.90;;;14.10;99.90;;;;;;4969742;28;20047;-81
2022/06/23 05:49:26;;;;;;;19.77;12.00;;;14.20;99.90;;;;;;4969974;28;20086;-82
2022/06/23 05:51:59;;;;;;;16.17;11.80;;;14.30;99.90;;;;;;4950547;28;20058;-81
2022/06/23 05:54:41;;;;;;;20.10;11.93;;;14.30;99.90;;;;;;4973825;28;20043;-80
2022/06/23 05:57:07;;;;;;;18.77;12.23;;;14.40;99.90;;;;;;4946884;28;20660;-81
2022/06/23 05:59:57;;;;;;;18.30;13.32;;;14.40;99.90;;;;;;4974383;28;20046;-80
2022/06/23 06:02:48;;;;;;;21.00;13.60;;;14.50;99.90;;;;;;4969028;28;20059;-79
2022/06/23 06:05:36;;;;;;;17.80;12.50;;;14.60;99.90;;;;;;4970438;28;20125;-81
2022/06/23 06:08:11;;;;;;;21.30;13.13;;;14.60;99.90;;;;;;4969130;28;20061;-81
2022/06/23 06:10:37;;;;;;;19.10;13.15;;;14.70;99.90;;;;;;4946945;28;20046;-81
2022/06/23 06:13:06;;;;;;;21.67;15.38;;;14.80;99.90;;;;;;4951617;28;20149;-85
2022/06/23 06:15:38;;;;;;;18.60;12.85;;;14.80;99.90;;;;;;4960922;28;20054;-81
2022/06/23 06:18:33;;;;;;;18.63;13.23;;;14.90;99.90;;;;;;4966378;28;20620;-82
2022/06/23 06:21:01;;;;;;;20.63;13.70;;;15.00;99.90;;;;;;4972796;28;20414;-80
2022/06/23 06:23:44;;;;;;;20.95;13.50;;;15.10;99.90;;;;;;4962127;28;20594;-81
2022/06/23 06:26:15;;;;;;;17.88;12.40;;;15.10;99.90;;;;;;4953381;28;20054;-81
2022/06/23 06:28:41;;;;;;;18.48;12.40;;;15.30;99.90;;;;;;4952958;28;20092;-79
2022/06/23 06:31:16;;;;;;;17.77;12.23;;;15.30;99.90;;;;;;4968466;28;20051;-80
2022/06/23 06:33:44;;;;;;;16.98;10.95;;;15.30;99.90;;;;;;4967505;28;20476;-83
2022/06/23 06:36:24;;;;;;;17.73;11.88;;;15.40;99.90;;;;;;4959851;28;20054;-83
2022/06/23 06:38:50;;;;;;;18.95;12.27;;;15.60;99.90;;;;;;4976888;28;20046;-83
2022/06/23 06:41:15;;;;;;;16.42;10.88;;;15.70;99.90;;;;;;4962273;28;20048;-85
2022/06/23 06:43:41;;;;;;;14.98;11.05;;;16.00;99.90;;;;;;4975397;28;21388;-85
2022/06/23 06:46:06;;;;;;;19.13;11.57;;;15.90;99.90;;;;;;4953795;28;20046;-80
2022/06/23 06:48:36;;;;;;;15.30;10.88;;;16.10;99.90;;;;;;4971953;28;20469;-83
2022/06/23 06:51:08;;;;;;;15.88;10.98;;;16.10;99.90;;;;;;4974281;28;20089;-89
2022/06/23 06:53:43;;;;;;;15.10;10.77;;;16.20;99.90;;;;;;4958319;28;20046;-84
2022/06/23 06:56:20;;;;;;;15.55;10.38;;;16.30;99.90;;;;;;4959293;28;20084;-81
2022/06/23 06:59:22;;;;;;;14.30;9.95;;;16.40;99.90;;;;;;4955926;28;20058;-80
2022/06/23 07:01:57;;;;;;;14.23;9.88;;;16.50;99.90;;;;;;4954382;28;20116;-79
2022/06/23 07:04:34;;;;;;;15.20;10.80;;;16.70;99.90;;;;;;4979468;28;20058;-79
2022/06/23 07:07:06;;;;;;;13.48;9.77;;;16.70;99.90;;;;;;4968896;28;20058;-80
2022/06/23 07:09:36;;;;;;;14.75;9.82;;;17.00;99.90;;;;;;4961576;28;20078;-79
2022/06/23 07:12:15;;;;;;;11.15;9.18;;;17.30;99.90;;;;;;4954291;28;20085;-78
2022/06/23 07:15:03;;;;;;;10.48;8.77;;;17.60;99.90;;;;;;4978226;28;20516;-79
2022/06/23 07:17:37;;;;;;;13.65;8.45;;;18.10;99.90;;;;;;4978741;28;20104;-79
2022/06/23 07:20:26;;;;;;;;;;;18.40;99.90;;;;;;4967270;28;20054;-79
2022/06/23 07:22:59;;;;;;;12.60;7.65;;;18.80;99.90;;;;;;4959105;28;19925;-79
2022/06/23 07:25:34;;;;;;;13.57;7.50;;;19.30;99.90;;;;;;4965334;28;20561;-79
2022/06/23 07:28:27;;;;;;;15.80;8.88;;;19.70;99.90;;;;;;4974854;28;20061;-81
2022/06/23 07:30:57;;;;;;;11.05;7.28;;;20.00;99.90;;;;;;4959992;28;20097;-80
2022/06/23 07:33:26;;;;;;;12.35;8.15;;;20.30;99.90;;;;;;4960942;28;20054;-80
2022/06/23 07:36:04;;;;;;;11.02;7.68;;;20.60;99.90;;;;;;4959828;28;20086;-80
2022/06/23 07:38:44;;;;;;;11.43;7.70;;;20.80;99.90;;;;;;4961137;28;20633;-80
2022/06/23 07:41:27;;;;;;;10.80;7.57;;;21.20;99.90;;;;;;4961153;28;20081;-80
2022/06/23 07:44:02;;;;;;;9.45;7.07;;;21.40;99.90;;;;;;4962600;28;20154;-81
2022/06/23 07:46:28;;;;;;;;;;;21.50;99.90;;;;;;4967982;28;20545;-81
2022/06/23 07:48:53;;;;;;;11.60;7.15;;;21.70;99.90;;;;;;4959965;28;19930;-81
2022/06/23 07:51:20;;;;;;;12.18;7.78;;;21.90;99.90;;;;;;4975657;28;20513;-81
2022/06/23 07:53:52;;;;;;;9.55;6.40;;;22.00;99.90;;;;;;4975019;28;20486;-81
2022/06/23 07:56:21;;;;;;;10.80;6.70;;;22.00;99.90;;;;;;4964031;28;20656;-81
2022/06/23 07:58:50;;;;;;;9.52;6.45;;;22.20;99.90;;;;;;4967373;28;20047;-81
2022/06/23 08:01:20;;;;;;;9.23;7.00;;;22.20;99.90;;;;;;4962331;28;20057;-82
2022/06/23 08:04:18;;;;;;;12.27;7.07;;;22.40;99.90;;;;;;4946982;28;20145;-82
2022/06/23 08:06:45;;;;;;;9.88;6.68;;;22.50;99.90;;;;;;4961128;28;20051;-83
2022/06/23 08:09:23;;;;;;;15.65;6.90;;;22.60;99.90;;;;;;4942771;28;20046;-83
2022/06/23 08:14:37;;;;;;;9.55;6.90;;;22.80;99.90;;;;;;4964904;28;20153;-83
2022/06/23 08:17:10;;;;;;;10.10;6.28;;;22.80;99.90;;;;;;4964639;28;20057;-83
2022/06/23 08:19:40;;;;;;;13.73;6.70;;;22.90;99.90;;;;;;4978844;28;20045;-83
2022/06/23 08:22:09;;;;;;;11.63;6.35;;;22.90;99.90;;;;;;4978644;28;20053;-83
2022/06/23 08:24:38;;;;;;;10.00;6.13;;;23.00;99.90;;;;;;4965878;28;20715;-84
2022/06/23 08:27:10;;;;;;;9.48;6.35;;;23.00;99.90;;;;;;4972250;28;20793;-84
2022/06/23 08:29:47;;;;;;;10.55;6.70;;;23.10;99.90;;;;;;4975929;28;20561;-82
2022/06/23 08:32:13;;;;;;;10.35;6.30;;;23.10;99.90;;;;;;4965103;28;20042;-84
2022/06/23 08:34:45;;;;;;;8.05;6.25;;;23.20;99.90;;;;;;4981597;28;20057;-84
2022/06/23 08:37:20;;;;;;;10.50;6.03;;;23.20;99.90;;;;;;4958749;28;20045;-82
2022/06/23 08:40:00;;;;;;;10.00;5.45;;;23.20;99.90;;;;;;4950216;28;20080;-84
2022/06/23 08:42:51;;;;;;;13.02;5.82;;;23.20;99.90;;;;;;4964635;28;20118;-84
2022/06/23 08:45:32;;;;;;;9.15;5.97;;;23.20;99.90;;;;;;4964283;28;20046;-83
2022/06/23 08:48:06;;;;;;;9.20;5.43;;;23.30;99.90;;;;;;4952812;28;20526;-85
2022/06/23 08:50:38;;;;;;;8.90;5.15;;;23.40;99.90;;;;;;4983570;28;20050;-85
2022/06/23 08:53:21;;;;;;;10.43;6.20;;;23.30;99.90;;;;;;4982499;28;20069;-85
2022/06/23 08:55:54;;;;;;;10.00;5.72;;;23.50;99.90;;;;;;4962518;28;20058;-87
2022/06/23 08:58:41;;;;;;;12.23;5.45;;;23.60;99.90;;;;;;4957101;28;20070;-88
2022/06/23 09:01:45;;;;;;;8.77;5.35;;;23.70;99.90;;;;;;4982015;28;20081;-86
2022/06/23 09:04:58;;;;;;;8.18;5.07;;;23.70;99.90;;;;;;4963414;28;20057;-83
2022/06/23 09:07:42;;;;;;;8.95;5.93;;;23.80;99.90;;;;;;4931401;28;20069;-82
2022/06/23 09:10:20;;;;;;;13.65;4.78;;;23.90;99.90;;;;;;4966279;28;20046;-85
2022/06/23 09:12:55;;;;;;;10.40;5.15;;;24.10;99.90;;;;;;4984305;28;20046;-84
2022/06/23 09:15:52;;;;;;;9.45;5.43;;;24.20;99.90;;;;;;4962154;28;20134;-85
2022/06/23 09:18:31;;;;;;;6.25;4.60;;;24.30;99.90;;;;;;4984686;28;20236;-85
2022/06/23 09:21:25;;;;;;;9.65;4.60;;;24.30;99.90;;;;;;4984027;28;20081;-85
2022/06/23 09:24:08;;;;;;;9.77;4.90;;;24.40;99.90;;;;;;4959724;28;20582;-85
2022/06/23 09:26:47;;;;;;;8.82;4.72;;;24.50;99.90;;;;;;4952065;28;20050;-84
2022/06/23 09:29:52;;;;;;;9.05;4.78;;;24.60;99.90;;;;;;4966848;28;20054;-82
2022/06/23 09:32:47;;;;;;;9.93;4.78;;;24.60;99.90;;;;;;4970991;28;20046;-82
2022/06/23 09:35:34;;;;;;;9.10;4.43;;;24.70;99.90;;;;;;4960563;28;20124;-81
2022/06/23 09:38:28;;;;;;;8.68;3.95;;;24.80;99.90;;;;;;4947083;28;20168;-84
2022/06/23 09:41:06;;;;;;;7.80;3.70;;;24.80;99.90;;;;;;4950118;28;20060;-82
2022/06/23 09:44:28;;;;;;;5.47;3.22;;;24.90;99.90;;;;;;4971506;28;20046;-82
2022/06/23 09:47:03;;;;;;;6.25;3.25;;;25.00;99.40;;;;;;4877963;29;20512;-83
2022/06/23 09:49:56;;;;;;;6.20;3.17;;;25.10;99.90;;;;;;4851743;29;20088;-83
2022/06/23 09:52:30;;;;;;;8.65;3.33;;;25.30;99.90;;;;;;4929414;28;20086;-83
2022/06/23 09:54:59;;;;;;;;;;;25.30;99.90;;;;;;4959470;28;20050;-83
2022/06/23 09:57:36;;;;;;;8.68;3.00;;;25.40;98.40;;;;;;4982883;28;19932;-85
2022/06/23 10:00:17;;;;;;;7.68;2.90;;;25.50;97.70;;;;;;4964810;28;20081;-81
2022/06/23 10:03:05;;;;;;;8.30;3.55;;;25.60;99.10;;;;;;4953334;28;20752;-81
2022/06/23 10:05:53;;;;;;;5.57;2.58;;;25.70;98.80;;;;;;4974680;28;20050;-81
2022/06/23 10:08:56;;;;;;;5.93;2.95;;;25.80;97.30;;;;;;4965332;28;20073;-82
2022/06/23 10:11:57;;;;;;;7.15;2.85;;;25.90;97.10;;;;;;4974436;28;20790;-81
2022/06/23 10:14:26;;;;;;;8.02;3.08;;;26.00;96.80;;;;;;4959082;28;20855;-83
2022/06/23 10:17:29;;;;;;;5.75;2.60;;;26.20;97.00;;;;;;4962648;28;20058;-84
2022/06/23 10:20:06;;;;;;;4.43;2.50;;;26.20;95.80;;;;;;4954254;28;20046;-82
2022/06/23 10:23:05;;;;;;;6.22;2.50;;;26.30;96.40;;;;;;4963746;28;20057;-80
2022/06/23 10:25:52;;;;;;;5.82;2.47;;;26.40;95.90;;;;;;4946523;28;20051;-81
2022/06/23 10:28:34;;;;;;;5.97;2.53;;;26.50;95.20;;;;;;4976270;28;20046;-81
2022/06/23 10:31:33;;;;;;;5.78;2.92;;;26.60;95.20;;;;;;4982976;28;20807;-82
2022/06/23 10:34:39;;;;;;;7.55;2.47;;;26.70;95.00;;;;;;4964886;28;20047;-85
2022/06/23 10:37:35;;;;;;;3.88;2.25;;;26.80;94.70;;;;;;4963740;28;20057;-83
2022/06/23 10:40:40;;;;;;;14.13;3.22;;;26.90;93.70;;;;;;4946478;28;20809;-84
2022/06/23 10:43:12;;;;;;;;;;;27.00;93.70;;;;;;4909184;28;20147;-83
2022/06/23 10:45:55;;;;;;;5.38;2.15;;;27.10;92.90;;;;;;4956884;28;19933;-83
2022/06/23 10:48:49;;;;;;;6.10;2.33;;;27.20;93.10;;;;;;4979874;28;20069;-82
2022/06/23 10:51:17;;;;;;;6.43;2.83;;;27.30;93.30;;;;;;4965436;28;20053;-87
2022/06/23 10:53:58;;;;;;;7.65;3.15;;;27.30;93.40;;;;;;4965993;28;20081;-84
2022/06/23 10:56:48;;;;;;;5.43;2.17;;;27.40;92.20;;;;;;4981544;28;20046;-80
2022/06/23 10:59:25;;;;;;;4.88;2.45;;;27.40;91.80;;;;;;4964242;28;20228;-80
2022/06/23 11:01:57;;;;;;;5.22;2.47;;;27.50;92.90;;;;;;4963603;28;20157;-80
2022/06/23 11:04:32;;;;;;;9.93;2.80;;;27.60;91.90;;;;;;4964592;28;20082;-80
2022/06/23 11:07:17;;;;;;;6.82;2.20;;;27.70;92.60;;;;;;4978536;28;20153;-80
2022/06/23 11:10:16;;;;;;;5.45;2.60;;;27.70;92.60;;;;;;4981851;28;20046;-81
2022/06/23 11:12:54;;;;;;;6.85;2.05;;;27.90;92.30;;;;;;4964020;28;20050;-79
2022/06/23 11:15:52;;;;;;;4.35;2.30;;;28.10;92.50;;;;;;4964641;28;20056;-79
2022/06/23 11:18:29;;;;;;;9.02;2.13;;;28.20;91.60;;;;;;4963059;28;20042;-79
2022/06/23 11:21:03;;;;;;;5.95;2.08;;;28.30;91.90;;;;;;4971681;28;20050;-79
2022/06/23 11:24:04;;;;;;;5.90;2.50;;;28.40;90.00;;;;;;4962423;28;20451;-80
2022/06/23 11:26:55;;;;;;;6.03;1.85;;;28.60;90.40;;;;;;4945203;28;20047;-80
2022/06/23 11:30:06;;;;;;;4.45;2.28;;;28.70;89.80;;;;;;4944540;28;20050;-80
2022/06/23 11:33:00;;;;;;;5.47;1.95;;;28.80;89.20;;;;;;4933967;28;20101;-79
2022/06/23 11:35:32;;;;;;;;;;;29.00;87.40;;;;;;4960903;28;20775;-81
2022/06/23 11:38:13;;;;;;;6.07;1.80;;;29.10;88.80;;;;;;4944883;28;19972;-80
2022/06/23 11:40:55;;;;;;;11.30;2.20;;;29.20;87.00;;;;;;4944054;28;20089;-80
2022/06/23 11:44:03;;;;;;;4.40;1.83;;;29.30;86.70;;;;;;4951101;28;20065;-81
2022/06/23 11:46:39;;;;;;;2.83;1.77;;;29.40;81.70;;;;;;4980848;28;20219;-80
2022/06/23 11:49:48;;;;;;;4.72;1.95;;;29.70;84.20;;;;;;4957268;28;20163;-80
2022/06/23 11:52:38;;;;;;;4.30;1.73;;;29.70;83.80;;;;;;4959478;28;20236;-80
2022/06/23 11:55:22;;;;;;;4.95;1.50;;;29.80;81.10;;;;;;4967264;28;20102;-80
2022/06/23 11:58:16;;;;;;;4.28;1.67;;;29.90;82.60;;;;;;4976971;28;20046;-79
2022/06/23 12:01:01;;;;;;;;;;;30.00;79.70;;;;;;4976026;28;20077;-80
2022/06/23 12:03:57;;;;;;;3.78;1.45;;;30.00;79.00;;;;;;4953089;28;20044;-83
2022/06/23 12:06:40;;;;;;;4.90;1.45;;;30.10;80.10;;;;;;4981022;28;20093;-81
2022/06/23 12:09:08;;;;;;;7.10;1.90;;;30.20;81.70;;;;;;4980193;28;20858;-86
2022/06/23 12:11:36;;;;;;;3.67;2.08;;;30.30;80.90;;;;;;4972340;28;20065;-86
2022/06/23 12:14:07;;;;;;;8.35;1.67;;;30.30;80.20;;;;;;4958570;28;20046;-86
2022/06/23 12:16:39;;;;;;;5.55;1.48;;;30.40;80.70;;;;;;4963719;28;20050;-86
2022/06/23 12:19:11;;;;;;;3.90;1.48;;;30.40;78.50;;;;;;4964563;28;20047;-85
2022/06/23 12:21:41;;;;;;;6.13;1.60;;;30.50;77.70;;;;;;4978562;28;20144;-85
2022/06/23 12:24:30;;;;;;;5.05;1.70;;;30.50;78.10;;;;;;4963064;28;20042;-85
2022/06/23 12:26:58;;;;;;;5.57;1.70;;;30.60;76.30;;;;;;4981302;28;20047;-84
2022/06/23 12:29:45;;;;;;;3.55;1.67;;;30.60;77.30;;;;;;4981155;28;20061;-84
2022/06/23 12:32:21;;;;;;;4.32;1.50;;;30.70;77.50;;;;;;4954266;28;20058;-86
2022/06/23 12:35:31;;;;;;;4.03;1.58;;;30.70;77.30;;;;;;4963214;28;20129;-84
2022/06/23 12:38:08;;;;;;;5.65;1.67;;;30.70;78.20;;;;;;4885376;29;20155;-88
2022/06/23 12:40:49;;;;;;;3.28;1.73;;;30.70;75.60;;;;;;4958799;28;20700;-88
2022/06/23 12:43:45;;;;;;;8.07;1.92;;;30.70;75.70;;;;;;4965548;28;20604;-83
2022/06/23 12:46:14;;;;;;;5.93;1.70;;;30.70;76.30;;;;;;4948920;28;20042;-86
2022/06/23 12:48:58;;;;;;;4.85;1.50;;;30.70;76.20;;;;;;4980894;28;20060;-84
2022/06/23 12:51:42;;;;;;;2.80;1.77;;;30.70;73.70;;;;;;4962284;28;20049;-86
2022/06/23 12:54:32;;;;;;;4.82;1.70;;;30.80;75.80;;;;;;4956765;28;20927;-86
2022/06/23 12:57:15;;;;;;;5.68;1.90;;;30.80;75.40;;;;;;4970804;28;20046;-86
2022/06/23 12:59:44;;;;;;;5.10;1.70;;;30.90;75.80;;;;;;4963966;28;20050;-86
2022/06/23 13:02:39;;;;;;;4.88;1.83;;;30.90;75.70;;;;;;4962069;28;20166;-81
2022/06/23 13:05:22;;;;;;;4.40;1.58;;;31.00;72.70;;;;;;4968373;28;20065;-80
2022/06/23 13:07:55;;;;;;;3.85;1.73;;;31.00;74.30;;;;;;4972890;28;20133;-80
2022/06/23 13:10:30;;;;;;;3.60;1.80;;;31.10;73.60;;;;;;4970205;28;20545;-80
2022/06/23 13:13:10;;;;;;;5.85;1.80;;;31.20;74.20;;;;;;4970969;28;20078;-80
2022/06/23 13:15:53;;;;;;;4.18;1.80;;;31.20;72.90;;;;;;4946049;28;20097;-78
2022/06/23 13:18:39;;;;;;;6.25;1.88;;;31.30;73.50;;;;;;4960590;28;20053;-78
2022/06/23 13:21:20;;;;;;;5.35;1.95;;;31.40;71.60;;;;;;4970572;28;20058;-80
2022/06/23 13:23:51;;;;;;;5.50;1.60;;;31.50;73.20;;;;;;4962967;28;20055;-80
2022/06/23 13:26:25;;;;;;;4.20;1.83;;;31.50;71.90;;;;;;4966517;28;20042;-80
2022/06/23 13:29:00;;;;;;;4.60;1.77;;;31.60;73.70;;;;;;4946305;28;20055;-79
2022/06/23 13:31:44;;;;;;;4.25;2.00;;;31.60;68.30;;;;;;4962013;28;20054;-77
2022/06/23 13:34:31;;;;;;;4.47;1.83;;;31.60;71.60;;;;;;4964581;28;20054;-78
2022/06/23 13:36:59;;;;;;;4.38;1.80;;;31.70;70.20;;;;;;4964681;28;20050;-77
2022/06/23 13:39:28;;;;;;;6.68;2.13;;;31.70;74.20;;;;;;4964163;28;20055;-78
2022/06/23 13:42:00;;;;;;;5.40;1.90;;;31.80;71.20;;;;;;4982995;28;20389;-78
2022/06/23 13:44:49;;;;;;;4.53;2.28;;;31.80;71.80;;;;;;4942648;28;20486;-80
2022/06/23 13:47:22;;;;;;;4.78;1.70;;;31.90;72.20;;;;;;4953005;28;20075;-77
2022/06/23 13:50:10;;;;;;;3.75;1.90;;;31.90;70.90;;;;;;4983020;28;20053;-78
2022/06/23 13:52:51;;;;;;;3.53;1.63;;;32.00;70.60;;;;;;4983612;28;20120;-77
2022/06/23 13:55:34;;;;;;;7.65;1.90;;;32.00;69.80;;;;;;4956733;28;20830;-78
2022/06/23 13:58:22;;;;;;;5.63;1.98;;;32.10;71.30;;;;;;4952026;28;20050;-79